createdAt,value
2023-09-27T00:01:34.646Z,11.27
2023-09-27T00:04:36.211Z,11.38
2023-09-27T00:07:38.164Z,11.42
2023-09-27T00:10:39.642Z,11.35
2023-09-27T00:13:41.073Z,11.30
2023-09-27T00:16:42.547Z,11.35
2023-09-27T00:19:44.032Z,11.24
2023-09-27T00:22:47.942Z,11.10
2023-09-27T00:25:49.892Z,10.92
2023-09-27T00:28:52.048Z,10.98
2023-09-27T00:31:53.729Z,10.89
2023-09-27T00:34:55.692Z,10.88
2023-09-27T00:37:59.630Z,10.84
2023-09-27T00:41:01.263Z,10.89
2023-09-27T00:44:03.126Z,10.94
2023-09-27T00:47:05.004Z,10.88
2023-09-27T00:50:08.678Z,10.92
2023-09-27T00:53:10.167Z,10.91
2023-09-27T00:56:11.689Z,10.70
2023-09-27T00:59:13.207Z,10.64
2023-09-27T01:02:14.701Z,10.73
2023-09-27T01:05:17.535Z,10.66
2023-09-27T01:08:19.088Z,10.71
2023-09-27T01:11:20.573Z,10.76
2023-09-27T01:14:22.029Z,10.65
2023-09-27T01:17:23.493Z,10.79
2023-09-27T01:20:25.777Z,10.78
2023-09-27T01:23:27.306Z,10.78
2023-09-27T01:26:28.831Z,10.74
2023-09-27T01:29:30.446Z,10.72
2023-09-27T01:32:31.955Z,10.66
2023-09-27T01:35:33.904Z,10.74
2023-09-27T01:38:35.403Z,10.68
2023-09-27T01:41:36.866Z,10.48
2023-09-27T01:44:38.349Z,10.53
2023-09-27T01:47:40.006Z,10.56
2023-09-27T01:50:41.770Z,10.42
2023-09-27T01:53:43.172Z,10.45
2023-09-27T01:56:44.577Z,10.43
2023-09-27T01:59:46.029Z,10.54
2023-09-27T02:02:50.889Z,10.51
2023-09-27T02:05:53.741Z,10.23
2023-09-27T02:08:55.868Z,10.21
2023-09-27T02:11:57.523Z,10.30
2023-09-27T02:14:58.904Z,10.42
2023-09-27T02:18:02.863Z,10.34
2023-09-27T02:21:04.305Z,10.17
2023-09-27T02:24:06.381Z,10.31
2023-09-27T02:27:07.810Z,10.36
2023-09-27T02:30:12.512Z,10.12
2023-09-27T02:33:14.198Z,10.13
2023-09-27T02:36:15.697Z,10.18
2023-09-27T02:39:17.115Z,10.14
2023-09-27T02:42:18.677Z,10.13
2023-09-27T02:45:20.079Z,10.24
2023-09-27T02:48:21.541Z,10.32
2023-09-27T02:51:23.159Z,10.21
2023-09-27T02:54:24.633Z,10.02
2023-09-27T02:57:26.064Z,9.96
2023-09-27T03:00:27.831Z,9.87
2023-09-27T03:03:31.897Z,9.84
2023-09-27T03:06:34.243Z,9.89
2023-09-27T03:09:38.389Z,9.99
2023-09-27T03:12:40.553Z,10.08
2023-09-27T03:15:42.232Z,10.13
2023-09-27T03:18:43.660Z,9.88
2023-09-27T03:21:45.043Z,9.82
2023-09-27T03:24:46.468Z,9.84
2023-09-27T03:27:48.469Z,9.86
2023-09-27T03:30:50.437Z,9.73
2023-09-27T03:33:51.876Z,9.85
2023-09-27T03:36:57.308Z,9.90
2023-09-27T03:39:58.828Z,9.91
2023-09-27T03:43:00.233Z,9.88
2023-09-27T03:46:05.060Z,9.83
2023-09-27T03:49:07.326Z,9.71
2023-09-27T03:52:09.334Z,9.72
2023-09-27T03:55:10.920Z,9.50
2023-09-27T03:58:12.304Z,9.72
2023-09-27T04:01:13.746Z,9.58
2023-09-27T04:04:15.217Z,9.51
2023-09-27T04:07:17.657Z,9.52
2023-09-27T04:10:20.651Z,9.42
2023-09-27T04:13:22.085Z,9.54
2023-09-27T04:16:24.576Z,9.59
2023-09-27T04:19:26.039Z,9.71
2023-09-27T04:22:28.257Z,9.58
2023-09-27T04:25:29.662Z,9.49
2023-09-27T04:28:31.386Z,9.44
2023-09-27T04:31:32.813Z,9.35
2023-09-27T04:34:34.292Z,9.40
2023-09-27T04:37:36.702Z,9.45
2023-09-27T04:40:38.094Z,9.47
2023-09-27T04:43:39.782Z,9.42
2023-09-27T04:46:41.239Z,9.31
2023-09-27T04:49:42.639Z,9.36
2023-09-27T04:52:44.392Z,9.37
2023-09-27T04:55:45.868Z,9.43
2023-09-27T04:58:47.261Z,9.45
2023-09-27T05:01:49.010Z,9.41
2023-09-27T05:04:50.417Z,9.35
2023-09-27T05:07:51.804Z,9.24
2023-09-27T05:10:53.493Z,9.25
2023-09-27T05:13:54.890Z,9.17
2023-09-27T05:16:56.269Z,9.25
2023-09-27T05:19:57.763Z,9.32
2023-09-27T05:22:59.295Z,9.26
2023-09-27T05:26:00.750Z,9.18
2023-09-27T05:29:03.282Z,9.20
2023-09-27T05:32:04.879Z,9.11
2023-09-27T05:35:06.648Z,9.25
2023-09-27T05:38:08.305Z,9.14
2023-09-27T05:41:09.834Z,9.20
2023-09-27T05:44:11.919Z,9.27
2023-09-27T05:47:13.496Z,9.20
2023-09-27T05:50:15.250Z,9.14
2023-09-27T05:53:19.897Z,9.18
2023-09-27T05:56:21.331Z,9.37
2023-09-27T05:59:25.553Z,9.22
2023-09-27T06:02:32.456Z,9.31
2023-09-27T06:05:34.281Z,9.34
2023-09-27T06:08:35.706Z,9.24
2023-09-27T06:11:37.246Z,9.31
2023-09-27T06:14:39.704Z,9.38
2023-09-27T06:17:41.717Z,9.43
2023-09-27T06:20:43.235Z,9.48
2023-09-27T06:23:44.681Z,9.47
2023-09-27T06:26:46.095Z,9.59
2023-09-27T06:29:47.817Z,9.63
2023-09-27T06:32:49.648Z,9.74
2023-09-27T06:35:51.194Z,9.89
2023-09-27T06:38:52.932Z,9.94
2023-09-27T06:41:55.865Z,10.03
2023-09-27T06:44:57.274Z,10.08
2023-09-27T06:47:59.983Z,10.18
2023-09-27T06:51:01.489Z,10.18
2023-09-27T06:54:03.722Z,10.17
2023-09-27T06:57:05.203Z,10.37
2023-09-27T07:00:14.575Z,10.49
2023-09-27T07:03:16.081Z,10.55
2023-09-27T07:06:18.033Z,10.69
2023-09-27T07:09:21.736Z,10.69
2023-09-27T07:12:23.146Z,10.86
2023-09-27T07:15:24.924Z,11.02
2023-09-27T07:18:26.803Z,11.21
2023-09-27T07:21:29.233Z,11.31
2023-09-27T07:24:34.283Z,11.46
2023-09-27T07:27:36.608Z,11.47
2023-09-27T07:30:38.448Z,11.41
2023-09-27T07:33:39.893Z,11.48
2023-09-27T07:36:41.284Z,11.61
2023-09-27T07:39:44.841Z,11.74
2023-09-27T07:42:46.530Z,11.77
2023-09-27T07:45:49.273Z,12.07
2023-09-27T07:48:50.806Z,12.29
2023-09-27T07:51:52.257Z,12.48
2023-09-27T07:54:54.219Z,12.52
2023-09-27T07:57:55.819Z,12.46
2023-09-27T08:00:57.321Z,12.67
2023-09-27T08:04:11.843Z,12.78
2023-09-27T08:07:14.367Z,13.12
2023-09-27T08:10:21.461Z,13.40
2023-09-27T08:13:23.487Z,13.48
2023-09-27T08:16:27.522Z,13.78
2023-09-27T08:19:31.615Z,13.98
2023-09-27T08:22:34.603Z,14.04
2023-09-27T08:25:38.482Z,14.48
2023-09-27T08:28:41.104Z,14.75
2023-09-27T08:31:42.663Z,15.10
2023-09-27T08:34:44.205Z,15.55
2023-09-27T08:37:45.707Z,15.91
2023-09-27T08:40:48.410Z,16.47
2023-09-27T08:43:50.199Z,16.88
2023-09-27T08:46:52.530Z,17.80
2023-09-27T08:49:54.014Z,18.04
2023-09-27T08:52:55.460Z,18.56
2023-09-27T08:55:56.912Z,19.06
2023-09-27T08:58:58.478Z,18.80
2023-09-27T09:01:59.932Z,19.13
2023-09-27T09:05:01.399Z,19.39
2023-09-27T09:08:02.993Z,19.27
2023-09-27T09:11:07.227Z,19.36
2023-09-27T09:14:08.894Z,19.40
2023-09-27T09:17:11.879Z,19.35
2023-09-27T09:20:18.367Z,19.63
2023-09-27T09:23:34.032Z,19.37
2023-09-27T09:26:36.579Z,19.50
2023-09-27T09:29:47.322Z,19.68
2023-09-27T09:32:49.257Z,19.59
2023-09-27T09:35:52.273Z,19.80
2023-09-27T09:38:53.911Z,19.69
2023-09-27T09:41:59.383Z,19.89
2023-09-27T09:45:08.209Z,20.25
2023-09-27T09:48:10.743Z,20.36
2023-09-27T09:51:12.712Z,20.61
2023-09-27T09:54:14.218Z,20.45
2023-09-27T09:57:24.761Z,20.96
2023-09-27T10:00:35.999Z,21.14
2023-09-27T10:03:37.515Z,21.82
2023-09-27T10:06:48.654Z,22.33
2023-09-27T10:09:51.037Z,22.98
2023-09-27T10:12:53.194Z,23.35
2023-09-27T10:15:54.676Z,23.33
2023-09-27T10:18:56.329Z,23.77
2023-09-27T10:22:08.570Z,24.14
2023-09-27T10:25:25.189Z,23.98
2023-09-27T10:28:26.799Z,23.88
2023-09-27T10:31:28.799Z,24.49
2023-09-27T10:34:30.208Z,24.81
2023-09-27T10:37:50.598Z,25.39
2023-09-27T10:40:52.189Z,25.05
2023-09-27T10:43:53.722Z,25.26
2023-09-27T10:46:55.230Z,25.04
2023-09-27T10:49:56.655Z,25.48
2023-09-27T10:52:58.419Z,25.54
2023-09-27T10:55:59.864Z,25.09
2023-09-27T10:59:01.403Z,25.13
2023-09-27T11:02:07.622Z,25.72
2023-09-27T11:05:11.612Z,26.34
2023-09-27T11:08:13.888Z,26.02
2023-09-27T11:11:15.517Z,25.40
2023-09-27T11:14:27.209Z,25.22
2023-09-27T11:17:29.998Z,25.04
2023-09-27T11:20:31.625Z,25.32
2023-09-27T11:23:51.226Z,25.04
2023-09-27T11:26:52.842Z,24.99
2023-09-27T11:29:54.404Z,24.66
2023-09-27T11:32:56.037Z,23.81
2023-09-27T11:35:57.468Z,24.28
2023-09-27T11:38:58.869Z,24.21
2023-09-27T11:42:00.917Z,24.28
2023-09-27T11:45:15.066Z,24.06
2023-09-27T11:48:16.951Z,23.47
2023-09-27T11:51:18.546Z,23.35
2023-09-27T11:54:19.942Z,22.46
2023-09-27T11:57:21.423Z,22.35
2023-09-27T12:00:23.716Z,22.42
2023-09-27T12:03:26.935Z,22.98
2023-09-27T12:06:30.317Z,22.82
2023-09-27T12:09:32.399Z,23.03
2023-09-27T12:12:34.848Z,23.63
2023-09-27T12:15:36.311Z,23.90
2023-09-27T12:18:37.752Z,24.59
2023-09-27T12:21:39.334Z,25.48
2023-09-27T12:24:40.728Z,25.42
2023-09-27T12:27:42.100Z,25.71
2023-09-27T12:30:43.538Z,26.04
2023-09-27T12:33:44.973Z,25.42
2023-09-27T12:36:46.498Z,25.55
2023-09-27T12:39:47.887Z,25.55
2023-09-27T12:42:49.321Z,25.40
2023-09-27T12:45:50.712Z,25.77
2023-09-27T12:48:52.550Z,26.05
2023-09-27T12:51:54.194Z,26.38
2023-09-27T12:54:55.593Z,26.28
2023-09-27T12:57:57.109Z,26.16
2023-09-27T13:00:58.629Z,26.43
2023-09-27T13:04:00.263Z,26.26
2023-09-27T13:07:01.732Z,26.52
2023-09-27T13:10:05.561Z,25.28
2023-09-27T13:13:06.977Z,25.59
2023-09-27T13:16:08.485Z,25.50
2023-09-27T13:19:11.053Z,25.71
2023-09-27T13:22:12.465Z,25.91
2023-09-27T13:25:14.464Z,26.40
2023-09-27T13:28:15.976Z,26.67
2023-09-27T13:31:17.448Z,26.44
2023-09-27T13:34:19.314Z,26.83
2023-09-27T13:37:21.060Z,26.82
2023-09-27T13:40:22.548Z,27.06
2023-09-27T13:43:24.064Z,27.16
2023-09-27T13:46:25.502Z,27.18
2023-09-27T13:49:27.016Z,27.14
2023-09-27T13:52:28.421Z,26.86
2023-09-27T13:55:29.959Z,26.81
2023-09-27T13:58:31.711Z,26.85
2023-09-27T14:01:33.266Z,26.89
2023-09-27T14:04:34.714Z,26.50
2023-09-27T14:07:36.833Z,26.89
2023-09-27T14:10:38.328Z,27.13
2023-09-27T14:13:39.778Z,27.04
2023-09-27T14:16:41.894Z,26.71
2023-09-27T14:19:43.557Z,26.91
2023-09-27T14:22:45.386Z,27.09
2023-09-27T14:25:46.832Z,27.08
2023-09-27T14:28:48.878Z,27.03
2023-09-27T14:31:50.613Z,27.24
2023-09-27T14:37:56.855Z,27.40
2023-09-27T14:40:58.359Z,27.03
2023-09-27T14:44:00.556Z,27.51
2023-09-27T14:47:02.102Z,27.68
2023-09-27T14:50:06.748Z,27.35
2023-09-27T14:53:08.164Z,26.87
2023-09-27T14:56:09.942Z,26.36
2023-09-27T14:59:11.351Z,25.70
2023-09-27T15:02:12.831Z,25.05
2023-09-27T15:05:14.466Z,24.56
2023-09-27T15:08:15.908Z,24.43
2023-09-27T15:11:20.809Z,24.42
2023-09-27T15:14:22.228Z,24.47
2023-09-27T15:17:23.622Z,24.26
2023-09-27T15:20:25.451Z,24.44
2023-09-27T15:23:26.847Z,24.51
2023-09-27T15:26:28.226Z,24.33
2023-09-27T15:29:29.605Z,24.24
2023-09-27T15:32:31.113Z,24.02
2023-09-27T15:35:32.718Z,24.18
2023-09-27T15:38:37.024Z,23.64
2023-09-27T15:41:38.451Z,23.53
2023-09-27T15:44:40.865Z,23.13
2023-09-27T15:47:42.340Z,23.13
2023-09-27T15:50:46.085Z,23.07
2023-09-27T15:53:47.680Z,22.60
2023-09-27T15:56:49.325Z,22.62
2023-09-27T15:59:50.796Z,22.33
2023-09-27T16:02:52.218Z,21.97
2023-09-27T16:05:53.636Z,21.91
2023-09-27T16:08:55.172Z,21.69
2023-09-27T16:11:57.096Z,21.66
2023-09-27T16:14:58.555Z,21.42
2023-09-27T16:17:59.994Z,21.63
2023-09-27T16:21:01.416Z,21.53
2023-09-27T16:24:04.287Z,21.07
2023-09-27T16:27:05.780Z,21.05
2023-09-27T16:30:08.586Z,20.92
2023-09-27T16:33:11.162Z,20.74
2023-09-27T16:36:18.939Z,20.41
2023-09-27T16:39:20.386Z,20.32
2023-09-27T16:42:22.094Z,20.19
2023-09-27T16:45:25.096Z,20.13
2023-09-27T16:48:26.706Z,19.99
2023-09-27T16:51:28.257Z,19.68
2023-09-27T16:54:29.795Z,19.51
2023-09-27T16:57:31.212Z,19.27
2023-09-27T17:00:32.630Z,19.06
2023-09-27T17:03:34.332Z,18.96
2023-09-27T17:06:35.757Z,18.83
2023-09-27T17:09:38.186Z,18.75
2023-09-27T17:12:39.616Z,18.33
2023-09-27T17:15:45.462Z,17.91
2023-09-27T17:18:48.008Z,18.21
2023-09-27T17:21:49.527Z,17.95
2023-09-27T17:24:52.983Z,18.08
2023-09-27T17:27:54.521Z,18.05
2023-09-27T17:30:57.854Z,17.78
2023-09-27T17:33:59.501Z,17.91
2023-09-27T17:37:01.148Z,17.81
2023-09-27T17:40:08.350Z,17.62
2023-09-27T17:43:09.827Z,17.38
2023-09-27T17:46:23.892Z,17.39
2023-09-27T17:49:26.137Z,17.33
2023-09-27T17:52:27.577Z,17.27
2023-09-27T17:55:29.014Z,17.20
2023-09-27T17:58:30.934Z,16.98
2023-09-27T18:01:32.516Z,16.97
2023-09-27T18:04:34.104Z,16.83
2023-09-27T18:07:35.576Z,16.72
2023-09-27T18:10:37.089Z,16.66
2023-09-27T18:13:38.871Z,16.54
2023-09-27T18:16:40.496Z,16.57
2023-09-27T18:19:42.004Z,16.68
2023-09-27T18:22:43.507Z,16.58
2023-09-27T18:25:44.973Z,16.28
2023-09-27T18:28:46.592Z,16.33
2023-09-27T18:31:48.368Z,16.27
2023-09-27T18:34:49.915Z,16.21
2023-09-27T18:37:51.537Z,16.11
2023-09-27T18:40:52.918Z,16.08
2023-09-27T18:43:55.069Z,15.97
2023-09-27T18:46:56.943Z,15.98
2023-09-27T18:49:58.472Z,16.05
2023-09-27T18:52:59.928Z,16.11
2023-09-27T18:56:01.412Z,16.14
2023-09-27T18:59:04.017Z,15.92
2023-09-27T19:02:05.611Z,15.88
2023-09-27T19:05:07.254Z,15.80
2023-09-27T19:08:09.127Z,15.77
2023-09-27T19:11:17.276Z,15.73
2023-09-27T19:14:18.683Z,15.79
2023-09-27T19:17:20.087Z,15.66
2023-09-27T19:20:21.550Z,15.51
2023-09-27T19:23:23.005Z,15.42
2023-09-27T19:26:24.471Z,15.41
2023-09-27T19:29:25.864Z,15.33
2023-09-27T19:32:27.377Z,15.28
2023-09-27T19:35:29.594Z,15.12
2023-09-27T19:38:32.348Z,15.05
2023-09-27T19:41:33.752Z,15.09
2023-09-27T19:44:36.480Z,15.16
2023-09-27T19:47:38.007Z,15.10
2023-09-27T19:50:42.064Z,14.93
2023-09-27T19:53:43.821Z,15.05
2023-09-27T19:56:45.229Z,14.94
2023-09-27T19:59:47.039Z,14.71
2023-09-27T20:02:48.675Z,14.56
2023-09-27T20:05:50.147Z,14.43
2023-09-27T20:08:51.547Z,14.38
2023-09-27T20:11:52.963Z,14.40
2023-09-27T20:14:54.408Z,14.54
2023-09-27T20:17:55.840Z,14.52
2023-09-27T20:20:57.375Z,14.47
2023-09-27T20:23:58.821Z,14.59
2023-09-27T20:27:02.233Z,14.56
2023-09-27T20:30:04.020Z,14.45
2023-09-27T20:33:05.928Z,14.38
2023-09-27T20:36:11.212Z,14.45
2023-09-27T20:39:12.673Z,14.45
2023-09-27T20:42:15.623Z,14.42
2023-09-27T20:45:17.057Z,14.39
2023-09-27T20:48:18.434Z,14.38
2023-09-27T20:51:19.833Z,14.11
2023-09-27T20:54:21.249Z,14.06
2023-09-27T20:57:22.898Z,14.07
2023-09-27T21:00:25.131Z,14.13
2023-09-27T21:03:26.617Z,14.20
2023-09-27T21:06:28.779Z,14.08
2023-09-27T21:09:30.401Z,13.86
2023-09-27T21:12:31.770Z,13.95
2023-09-27T21:15:33.176Z,13.90
2023-09-27T21:18:34.554Z,13.87
2023-09-27T21:21:36.041Z,13.73
2023-09-27T21:24:37.439Z,13.83
2023-09-27T21:27:39.940Z,13.86
2023-09-27T21:30:41.370Z,13.84
2023-09-27T21:33:43.078Z,13.75
2023-09-27T21:36:44.566Z,13.62
2023-09-27T21:39:45.962Z,13.58
2023-09-27T21:42:47.361Z,13.54
2023-09-27T21:45:48.861Z,13.49
2023-09-27T21:48:50.324Z,13.36
2023-09-27T21:51:51.763Z,13.35
2023-09-27T21:54:53.173Z,13.34
2023-09-27T21:57:54.591Z,13.10
2023-09-27T22:00:56.002Z,13.13
2023-09-27T22:03:57.550Z,13.15
2023-09-27T22:06:58.959Z,13.22
2023-09-27T22:10:00.366Z,13.20
2023-09-27T22:13:21.819Z,13.23
2023-09-27T22:16:23.421Z,13.41
2023-09-27T22:19:28.776Z,13.43
2023-09-27T22:22:30.326Z,13.50
2023-09-27T22:25:31.825Z,13.37
2023-09-27T22:28:33.309Z,13.22
2023-09-27T22:31:36.738Z,13.33
2023-09-27T22:34:38.828Z,13.20
2023-09-27T22:37:40.483Z,13.13
2023-09-27T22:40:44.640Z,13.18
2023-09-27T22:43:46.340Z,13.14
2023-09-27T22:46:48.162Z,13.12
2023-09-27T22:49:51.030Z,13.21
2023-09-27T22:52:56.518Z,13.21
2023-09-27T22:56:00.958Z,13.18
2023-09-27T22:59:02.406Z,13.09
2023-09-27T23:02:10.204Z,13.07
2023-09-27T23:05:28.582Z,13.12
2023-09-27T23:08:30.789Z,13.11
2023-09-27T23:11:41.579Z,13.11
2023-09-27T23:15:01.802Z,12.96
2023-09-27T23:18:12.177Z,13.13
2023-09-27T23:21:25.843Z,13.07
2023-09-27T23:24:27.316Z,13.04
2023-09-27T23:27:28.735Z,13.03
2023-09-27T23:30:30.100Z,13.07
2023-09-27T23:33:31.578Z,13.02
2023-09-27T23:36:39.233Z,12.96
2023-09-27T23:39:43.494Z,13.01
2023-09-27T23:42:48.313Z,12.94
2023-09-27T23:45:49.996Z,13.01
2023-09-27T23:48:54.260Z,13.00
2023-09-27T23:51:55.688Z,12.98
2023-09-27T23:54:57.621Z,13.02
2023-09-27T23:58:05.800Z,12.98
